sensor_id;sensor_type;location;lat;lon;timestamp;temperature;humidity
33414;DHT22;60055;41.884;12.534;2023-01-10T00:01:07;11.60;99.90
33414;DHT22;60055;41.884;12.534;2023-01-10T00:03:33;11.70;99.90
33414;DHT22;60055;41.884;12.534;2023-01-10T00:05:59;11.70;99.90
33414;DHT22;60055;41.884;12.534;2023-01-10T00:08:24;11.70;99.90
33414;DHT22;60055;41.884;12.534;2023-01-10T00:10:50;11.70;99.90
33414;DHT22;60055;41.884;12.534;2023-01-10T00:13:16;11.70;99.90
33414;DHT22;60055;41.884;12.534;2023-01-10T00:15:49;11.70;99.90
33414;DHT22;60055;41.884;12.534;2023-01-10T00:18:15;11.70;99.90
33414;DHT22;60055;41.884;12.534;2023-01-10T00:20:40;11.70;99.90
33414;DHT22;60055;41.884;12.534;2023-01-10T00:23:09;11.70;99.90
33414;DHT22;60055;41.884;12.534;2023-01-10T00:25:35;11.70;99.90
33414;DHT22;60055;41.884;12.534;2023-01-10T00:28:00;11.70;99.90
33414;DHT22;60055;41.884;12.534;2023-01-10T00:30:48;11.80;99.90
33414;DHT22;60055;41.884;12.534;2023-01-10T00:33:19;11.60;99.90
33414;DHT22;60055;41.884;12.534;2023-01-10T00:35:46;11.60;99.90
33414;DHT22;60055;41.884;12.534;2023-01-10T00:38:12;11.60;99.90
33414;DHT22;60055;41.884;12.534;2023-01-10T00:40:39;11.60;99.90
33414;DHT22;60055;41.884;12.534;2023-01-10T00:43:04;11.50;99.90
33414;DHT22;60055;41.884;12.534;2023-01-10T00:45:49;11.50;99.90
33414;DHT22;60055;41.884;12.534;2023-01-10T00:48:16;11.30;99.90
33414;DHT22;60055;41.884;12.534;2023-01-10T00:50:44;11.30;99.90
33414;DHT22;60055;41.884;12.534;2023-01-10T00:53:11;11.20;99.90
33414;DHT22;60055;41.884;12.534;2023-01-10T00:55:36;11.20;99.90
33414;DHT22;60055;41.884;12.534;2023-01-10T00:58:02;11.10;99.90
33414;DHT22;60055;41.884;12.534;2023-01-10T01:00:29;11.10;99.90
33414;DHT22;60055;41.884;12.534;2023-01-10T01:02:55;11.30;99.90
33414;DHT22;60055;41.884;12.534;2023-01-10T01:05:21;11.40;99.90
33414;DHT22;60055;41.884;12.534;2023-01-10T01:07:50;11.50;99.90
33414;DHT22;60055;41.884;12.534;2023-01-10T01:10:17;11.60;99.90
33414;DHT22;60055;41.884;12.534;2023-01-10T01:12:58;11.60;99.90
33414;DHT22;60055;41.884;12.534;2023-01-10T01:15:26;11.40;99.90
33414;DHT22;60055;41.884;12.534;2023-01-10T01:17:52;11.30;99.90
33414;DHT22;60055;41.884;12.534;2023-01-10T01:20:18;11.20;99.90
33414;DHT22;60055;41.884;12.534;2023-01-10T01:22:45;11.20;99.90
33414;DHT22;60055;41.884;12.534;2023-01-10T01:25:15;11.10;99.90
33414;DHT22;60055;41.884;12.534;2023-01-10T01:27:40;11.10;99.90
33414;DHT22;60055;41.884;12.534;2023-01-10T01:30:08;11.30;99.90
33414;DHT22;60055;41.884;12.534;2023-01-10T01:32:34;11.30;99.90
33414;DHT22;60055;41.884;12.534;2023-01-10T01:35:00;11.20;99.90
33414;DHT22;60055;41.884;12.534;2023-01-10T01:37:25;11.10;99.90
33414;DHT22;60055;41.884;12.534;2023-01-10T01:39:51;11.10;99.90
33414;DHT22;60055;41.884;12.534;2023-01-10T01:47:54;11.10;99.90
33414;DHT22;60055;41.884;12.534;2023-01-10T01:50:25;11.20;99.90
33414;DHT22;60055;41.884;12.534;2023-01-10T01:52:53;11.00;99.90
33414;DHT22;60055;41.884;12.534;2023-01-10T01:55:20;11.00;99.90
33414;DHT22;60055;41.884;12.534;2023-01-10T01:57:47;10.90;99.90
33414;DHT22;60055;41.884;12.534;2023-01-10T02:00:14;10.80;99.90
33414;DHT22;60055;41.884;12.534;2023-01-10T02:02:48;10.90;99.90
33414;DHT22;60055;41.884;12.534;2023-01-10T02:05:16;11.00;99.90
33414;DHT22;60055;41.884;12.534;2023-01-10T02:07:45;11.10;99.90
33414;DHT22;60055;41.884;12.534;2023-01-10T02:10:20;11.10;99.90
33414;DHT22;60055;41.884;12.534;2023-01-10T02:12:50;11.20;99.90
33414;DHT22;60055;41.884;12.534;2023-01-10T02:15:18;11.20;99.90
33414;DHT22;60055;41.884;12.534;2023-01-10T02:17:49;11.10;99.90
33414;DHT22;60055;41.884;12.534;2023-01-10T02:20:17;11.00;99.90
33414;DHT22;60055;41.884;12.534;2023-01-10T02:23:32;11.10;99.90
33414;DHT22;60055;41.884;12.534;2023-01-10T02:29:07;11.00;99.90
33414;DHT22;60055;41.884;12.534;2023-01-10T02:34:04;10.70;99.90
33414;DHT22;60055;41.884;12.534;2023-01-10T02:36:55;10.70;99.90
33414;DHT22;60055;41.884;12.534;2023-01-10T02:39:39;10.70;99.90
33414;DHT22;60055;41.884;12.534;2023-01-10T02:42:14;10.40;99.90
33414;DHT22;60055;41.884;12.534;2023-01-10T02:47:18;10.40;99.90
33414;DHT22;60055;41.884;12.534;2023-01-10T02:49:48;10.20;99.90
33414;DHT22;60055;41.884;12.534;2023-01-10T02:52:21;10.10;99.90
33414;DHT22;60055;41.884;12.534;2023-01-10T02:54:48;10.20;99.90
33414;DHT22;60055;41.884;12.534;2023-01-10T02:57:40;10.30;99.90
33414;DHT22;60055;41.884;12.534;2023-01-10T03:00:23;10.40;99.90
33414;DHT22;60055;41.884;12.534;2023-01-10T03:03:14;10.50;99.90
33414;DHT22;60055;41.884;12.534;2023-01-10T03:11:12;10.90;99.90
33414;DHT22;60055;41.884;12.534;2023-01-10T03:13:54;11.00;99.90
33414;DHT22;60055;41.884;12.534;2023-01-10T03:16:26;11.00;99.90
33414;DHT22;60055;41.884;12.534;2023-01-10T03:18:58;10.90;99.90
33414;DHT22;60055;41.884;12.534;2023-01-10T03:21:27;10.80;99.90
33414;DHT22;60055;41.884;12.534;2023-01-10T03:23:56;10.70;99.90
33414;DHT22;60055;41.884;12.534;2023-01-10T03:26:35;10.60;99.90
33414;DHT22;60055;41.884;12.534;2023-01-10T03:29:08;10.30;99.90
33414;DHT22;60055;41.884;12.534;2023-01-10T03:31:39;10.10;99.90
33414;DHT22;60055;41.884;12.534;2023-01-10T03:34:07;10.00;99.90
33414;DHT22;60055;41.884;12.534;2023-01-10T03:36:39;9.90;99.90
33414;DHT22;60055;41.884;12.534;2023-01-10T03:39:19;9.90;99.90
33414;DHT22;60055;41.884;12.534;2023-01-10T03:45:19;10.00;99.90
33414;DHT22;60055;41.884;12.534;2023-01-10T03:50:05;9.60;99.90
33414;DHT22;60055;41.884;12.534;2023-01-10T03:52:33;9.70;99.90
33414;DHT22;60055;41.884;12.534;2023-01-10T03:55:03;9.80;99.90
33414;DHT22;60055;41.884;12.534;2023-01-10T03:57:30;9.90;99.90
33414;DHT22;60055;41.884;12.534;2023-01-10T03:59:56;9.90;99.90
33414;DHT22;60055;41.884;12.534;2023-01-10T04:02:28;9.80;99.90
33414;DHT22;60055;41.884;12.534;2023-01-10T04:04:54;9.80;99.90
33414;DHT22;60055;41.884;12.534;2023-01-10T04:07:19;9.90;99.90
33414;DHT22;60055;41.884;12.534;2023-01-10T04:09:45;9.70;99.90
33414;DHT22;60055;41.884;12.534;2023-01-10T04:12:11;9.60;99.90
33414;DHT22;60055;41.884;12.534;2023-01-10T04:14:40;9.70;99.90
33414;DHT22;60055;41.884;12.534;2023-01-10T04:17:06;9.60;99.90
33414;DHT22;60055;41.884;12.534;2023-01-10T04:19:32;9.70;99.90
33414;DHT22;60055;41.884;12.534;2023-01-10T04:21:58;9.80;99.90
33414;DHT22;60055;41.884;12.534;2023-01-10T04:24:24;9.70;99.90
33414;DHT22;60055;41.884;12.534;2023-01-10T04:26:50;9.70;99.90
33414;DHT22;60055;41.884;12.534;2023-01-10T04:29:15;9.70;99.90
33414;DHT22;60055;41.884;12.534;2023-01-10T04:31:41;9.80;99.90
33414;DHT22;60055;41.884;12.534;2023-01-10T04:34:07;9.80;99.90
33414;DHT22;60055;41.884;12.534;2023-01-10T04:36:34;9.80;99.90
33414;DHT22;60055;41.884;12.534;2023-01-10T04:39:00;9.80;99.90
33414;DHT22;60055;41.884;12.534;2023-01-10T04:41:27;9.70;99.90
33414;DHT22;60055;41.884;12.534;2023-01-10T04:43:53;9.80;99.90
33414;DHT22;60055;41.884;12.534;2023-01-10T04:46:22;9.70;99.90
33414;DHT22;60055;41.884;12.534;2023-01-10T04:48:50;9.80;99.90
33414;DHT22;60055;41.884;12.534;2023-01-10T04:51:18;9.90;99.90
33414;DHT22;60055;41.884;12.534;2023-01-10T04:53:48;9.80;99.90
33414;DHT22;60055;41.884;12.534;2023-01-10T04:56:16;9.70;99.90
33414;DHT22;60055;41.884;12.534;2023-01-10T04:58:43;9.80;99.90
33414;DHT22;60055;41.884;12.534;2023-01-10T05:01:10;9.90;99.90
33414;DHT22;60055;41.884;12.534;2023-01-10T05:03:36;9.80;99.90
33414;DHT22;60055;41.884;12.534;2023-01-10T05:06:03;9.80;99.90
33414;DHT22;60055;41.884;12.534;2023-01-10T05:08:29;9.80;99.90
33414;DHT22;60055;41.884;12.534;2023-01-10T05:10:57;9.80;99.90
33414;DHT22;60055;41.884;12.534;2023-01-10T05:13:23;9.60;99.90
33414;DHT22;60055;41.884;12.534;2023-01-10T05:15:52;9.40;99.90
33414;DHT22;60055;41.884;12.534;2023-01-10T05:18:19;9.50;99.90
33414;DHT22;60055;41.884;12.534;2023-01-10T05:20:48;9.50;99.90
33414;DHT22;60055;41.884;12.534;2023-01-10T05:23:16;9.50;99.90
33414;DHT22;60055;41.884;12.534;2023-01-10T05:25:44;9.30;99.90
33414;DHT22;60055;41.884;12.534;2023-01-10T05:28:15;9.30;99.90
33414;DHT22;60055;41.884;12.534;2023-01-10T05:30:43;9.20;99.90
33414;DHT22;60055;41.884;12.534;2023-01-10T05:33:08;9.10;99.90
33414;DHT22;60055;41.884;12.534;2023-01-10T05:35:36;9.20;99.90
33414;DHT22;60055;41.884;12.534;2023-01-10T05:38:05;9.10;99.90
33414;DHT22;60055;41.884;12.534;2023-01-10T05:40:30;9.20;99.90
33414;DHT22;60055;41.884;12.534;2023-01-10T05:42:57;9.20;99.90
33414;DHT22;60055;41.884;12.534;2023-01-10T05:45:27;9.30;99.90
33414;DHT22;60055;41.884;12.534;2023-01-10T05:47:54;9.20;99.90
33414;DHT22;60055;41.884;12.534;2023-01-10T05:50:21;9.30;99.90
33414;DHT22;60055;41.884;12.534;2023-01-10T05:52:50;9.10;99.90
33414;DHT22;60055;41.884;12.534;2023-01-10T05:55:22;9.10;99.90
33414;DHT22;60055;41.884;12.534;2023-01-10T05:58:08;9.10;99.90
33414;DHT22;60055;41.884;12.534;2023-01-10T06:00:38;9.20;99.90
33414;DHT22;60055;41.884;12.534;2023-01-10T06:03:08;9.20;99.90
33414;DHT22;60055;41.884;12.534;2023-01-10T06:05:34;9.20;99.90
33414;DHT22;60055;41.884;12.534;2023-01-10T06:08:02;9.20;99.90
33414;DHT22;60055;41.884;12.534;2023-01-10T06:10:27;9.20;99.90
33414;DHT22;60055;41.884;12.534;2023-01-10T06:12:53;9.20;99.90
33414;DHT22;60055;41.884;12.534;2023-01-10T06:15:20;9.20;99.90
33414;DHT22;60055;41.884;12.534;2023-01-10T06:17:47;9.30;99.90
33414;DHT22;60055;41.884;12.534;2023-01-10T06:20:13;9.50;99.90
33414;DHT22;60055;41.884;12.534;2023-01-10T06:22:42;9.40;99.90
33414;DHT22;60055;41.884;12.534;2023-01-10T06:25:09;9.40;99.90
33414;DHT22;60055;41.884;12.534;2023-01-10T06:27:35;9.30;99.90
33414;DHT22;60055;41.884;12.534;2023-01-10T06:30:02;9.40;99.90
33414;DHT22;60055;41.884;12.534;2023-01-10T06:32:28;9.30;99.90
33414;DHT22;60055;41.884;12.534;2023-01-10T06:34:54;9.10;99.90
33414;DHT22;60055;41.884;12.534;2023-01-10T06:37:22;9.30;99.90
33414;DHT22;60055;41.884;12.534;2023-01-10T06:39:48;9.30;99.90
33414;DHT22;60055;41.884;12.534;2023-01-10T06:42:15;9.20;99.90
33414;DHT22;60055;41.884;12.534;2023-01-10T06:44:45;9.20;99.90
33414;DHT22;60055;41.884;12.534;2023-01-10T06:47:10;9.30;99.90
33414;DHT22;60055;41.884;12.534;2023-01-10T06:49:38;9.30;99.90
33414;DHT22;60055;41.884;12.534;2023-01-10T06:52:03;9.20;99.90
33414;DHT22;60055;41.884;12.534;2023-01-10T06:54:29;9.30;99.90
33414;DHT22;60055;41.884;12.534;2023-01-10T06:56:56;9.20;99.90
33414;DHT22;60055;41.884;12.534;2023-01-10T06:59:24;9.30;99.90
33414;DHT22;60055;41.884;12.534;2023-01-10T07:01:49;9.30;99.90
33414;DHT22;60055;41.884;12.534;2023-01-10T07:04:19;9.20;99.90
33414;DHT22;60055;41.884;12.534;2023-01-10T07:06:44;9.10;99.90
33414;DHT22;60055;41.884;12.534;2023-01-10T07:09:11;9.00;99.90
33414;DHT22;60055;41.884;12.534;2023-01-10T07:11:40;9.00;99.90
33414;DHT22;60055;41.884;12.534;2023-01-10T07:14:10;8.90;99.90
33414;DHT22;60055;41.884;12.534;2023-01-10T07:16:36;8.80;99.90
33414;DHT22;60055;41.884;12.534;2023-01-10T07:19:02;8.90;99.90
33414;DHT22;60055;41.884;12.534;2023-01-10T07:21:28;9.00;99.90
33414;DHT22;60055;41.884;12.534;2023-01-10T07:24:01;9.00;99.90
33414;DHT22;60055;41.884;12.534;2023-01-10T07:26:27;9.10;99.90
33414;DHT22;60055;41.884;12.534;2023-01-10T07:28:52;9.00;99.90
33414;DHT22;60055;41.884;12.534;2023-01-10T07:31:20;9.00;99.90
33414;DHT22;60055;41.884;12.534;2023-01-10T07:33:49;9.10;99.90
33414;DHT22;60055;41.884;12.534;2023-01-10T07:36:15;9.00;99.90
33414;DHT22;60055;41.884;12.534;2023-01-10T07:38:44;9.00;99.90
33414;DHT22;60055;41.884;12.534;2023-01-10T07:41:13;9.00;99.90
33414;DHT22;60055;41.884;12.534;2023-01-10T07:43:46;9.10;99.90
33414;DHT22;60055;41.884;12.534;2023-01-10T07:46:15;9.30;99.90
33414;DHT22;60055;41.884;12.534;2023-01-10T07:48:41;9.20;99.90
33414;DHT22;60055;41.884;12.534;2023-01-10T07:51:11;9.40;99.90
33414;DHT22;60055;41.884;12.534;2023-01-10T07:53:42;9.20;99.90
33414;DHT22;60055;41.884;12.534;2023-01-10T07:56:17;9.20;99.90
33414;DHT22;60055;41.884;12.534;2023-01-10T07:58:49;9.20;99.90
33414;DHT22;60055;41.884;12.534;2023-01-10T08:01:28;9.40;99.90
33414;DHT22;60055;41.884;12.534;2023-01-10T08:03:56;9.40;99.90
33414;DHT22;60055;41.884;12.534;2023-01-10T08:10:00;9.80;99.90
33414;DHT22;60055;41.884;12.534;2023-01-10T08:12:44;9.60;99.90
33414;DHT22;60055;41.884;12.534;2023-01-10T08:15:13;9.70;99.90
33414;DHT22;60055;41.884;12.534;2023-01-10T08:17:39;9.80;99.90
33414;DHT22;60055;41.884;12.534;2023-01-10T08:20:09;10.00;99.90
33414;DHT22;60055;41.884;12.534;2023-01-10T08:22:47;9.80;99.90
33414;DHT22;60055;41.884;12.534;2023-01-10T08:25:16;10.20;99.90
33414;DHT22;60055;41.884;12.534;2023-01-10T08:27:42;10.40;99.90
33414;DHT22;60055;41.884;12.534;2023-01-10T08:30:10;10.40;99.90
33414;DHT22;60055;41.884;12.534;2023-01-10T08:32:36;10.30;99.90
33414;DHT22;60055;41.884;12.534;2023-01-10T08:35:04;10.30;99.90
33414;DHT22;60055;41.884;12.534;2023-01-10T08:37:37;10.50;99.90
33414;DHT22;60055;41.884;12.534;2023-01-10T08:40:07;10.70;99.90
33414;DHT22;60055;41.884;12.534;2023-01-10T08:42:45;10.80;99.90
33414;DHT22;60055;41.884;12.534;2023-01-10T08:45:23;10.70;99.90
33414;DHT22;60055;41.884;12.534;2023-01-10T08:47:51;10.70;99.90
33414;DHT22;60055;41.884;12.534;2023-01-10T08:50:20;10.70;99.90
33414;DHT22;60055;41.884;12.534;2023-01-10T08:53:00;10.90;99.90
33414;DHT22;60055;41.884;12.534;2023-01-10T08:55:26;11.00;99.90
33414;DHT22;60055;41.884;12.534;2023-01-10T08:57:58;11.10;99.90
33414;DHT22;60055;41.884;12.534;2023-01-10T09:00:29;11.00;99.90
33414;DHT22;60055;41.884;12.534;2023-01-10T09:02:55;11.10;99.90
33414;DHT22;60055;41.884;12.534;2023-01-10T09:05:21;11.00;99.90
33414;DHT22;60055;41.884;12.534;2023-01-10T09:07:59;11.40;99.90
33414;DHT22;60055;41.884;12.534;2023-01-10T09:10:29;11.20;99.90
33414;DHT22;60055;41.884;12.534;2023-01-10T09:12:57;11.60;99.90
33414;DHT22;60055;41.884;12.534;2023-01-10T09:15:33;11.90;99.90
33414;DHT22;60055;41.884;12.534;2023-01-10T09:18:02;11.80;99.90
33414;DHT22;60055;41.884;12.534;2023-01-10T09:20:35;12.00;99.90
33414;DHT22;60055;41.884;12.534;2023-01-10T09:23:12;11.90;99.90
33414;DHT22;60055;41.884;12.534;2023-01-10T09:25:59;11.90;99.90
33414;DHT22;60055;41.884;12.534;2023-01-10T09:28:27;12.00;99.90
33414;DHT22;60055;41.884;12.534;2023-01-10T09:31:00;12.00;99.90
33414;DHT22;60055;41.884;12.534;2023-01-10T09:33:57;11.90;99.90
33414;DHT22;60055;41.884;12.534;2023-01-10T09:36:28;11.80;99.90
33414;DHT22;60055;41.884;12.534;2023-01-10T09:38:55;11.90;99.90
33414;DHT22;60055;41.884;12.534;2023-01-10T09:41:49;11.90;99.90
33414;DHT22;60055;41.884;12.534;2023-01-10T09:47:40;11.90;99.90
33414;DHT22;60055;41.884;12.534;2023-01-10T09:53:20;12.30;99.90
33414;DHT22;60055;41.884;12.534;2023-01-10T09:55:54;12.40;99.90
33414;DHT22;60055;41.884;12.534;2023-01-10T09:58:25;12.50;99.90
33414;DHT22;60055;41.884;12.534;2023-01-10T10:01:10;12.30;99.90
33414;DHT22;60055;41.884;12.534;2023-01-10T10:03:48;12.30;99.90
33414;DHT22;60055;41.884;12.534;2023-01-10T10:06:26;12.40;99.90
33414;DHT22;60055;41.884;12.534;2023-01-10T10:08:53;12.40;99.90
33414;DHT22;60055;41.884;12.534;2023-01-10T10:17:01;12.40;99.90
33414;DHT22;60055;41.884;12.534;2023-01-10T10:26:00;12.70;99.90
33414;DHT22;60055;41.884;12.534;2023-01-10T10:29:14;12.80;99.90
33414;DHT22;60055;41.884;12.534;2023-01-10T10:38:37;12.80;99.90
33414;DHT22;60055;41.884;12.534;2023-01-10T10:41:16;12.80;99.90
33414;DHT22;60055;41.884;12.534;2023-01-10T10:44:24;12.90;99.90
33414;DHT22;60055;41.884;12.534;2023-01-10T10:47:01;12.80;99.90
33414;DHT22;60055;41.884;12.534;2023-01-10T10:52:44;12.90;99.90
33414;DHT22;60055;41.884;12.534;2023-01-10T10:55:15;13.00;99.90
33414;DHT22;60055;41.884;12.534;2023-01-10T10:57:44;13.00;99.90
33414;DHT22;60055;41.884;12.534;2023-01-10T11:00:30;13.10;99.90
33414;DHT22;60055;41.884;12.534;2023-01-10T11:09:32;13.20;99.90
33414;DHT22;60055;41.884;12.534;2023-01-10T11:12:12;13.30;99.90
33414;DHT22;60055;41.884;12.534;2023-01-10T11:14:49;13.30;99.90
33414;DHT22;60055;41.884;12.534;2023-01-10T11:17:22;13.40;99.90
33414;DHT22;60055;41.884;12.534;2023-01-10T11:20:26;13.40;99.90
33414;DHT22;60055;41.884;12.534;2023-01-10T11:23:02;13.40;99.90
33414;DHT22;60055;41.884;12.534;2023-01-10T11:25:29;13.50;99.90
33414;DHT22;60055;41.884;12.534;2023-01-10T11:27:58;13.60;99.90
33414;DHT22;60055;41.884;12.534;2023-01-10T11:30:33;13.40;99.90
33414;DHT22;60055;41.884;12.534;2023-01-10T11:33:22;13.50;99.90
33414;DHT22;60055;41.884;12.534;2023-01-10T11:36:03;13.60;99.90
33414;DHT22;60055;41.884;12.534;2023-01-10T11:38:30;13.60;99.90
33414;DHT22;60055;41.884;12.534;2023-01-10T11:41:00;13.70;99.90
33414;DHT22;60055;41.884;12.534;2023-01-10T11:43:46;13.70;99.90
33414;DHT22;60055;41.884;12.534;2023-01-10T11:46:25;13.80;99.90
33414;DHT22;60055;41.884;12.534;2023-01-10T11:49:02;13.80;99.90
33414;DHT22;60055;41.884;12.534;2023-01-10T11:51:38;13.80;99.90
33414;DHT22;60055;41.884;12.534;2023-01-10T11:54:22;13.70;99.90
33414;DHT22;60055;41.884;12.534;2023-01-10T11:57:14;13.90;99.90
33414;DHT22;60055;41.884;12.534;2023-01-10T12:00:06;13.90;99.90
33414;DHT22;60055;41.884;12.534;2023-01-10T12:02:48;13.80;99.90
33414;DHT22;60055;41.884;12.534;2023-01-10T12:05:20;13.90;99.90
33414;DHT22;60055;41.884;12.534;2023-01-10T12:08:04;13.80;99.90
33414;DHT22;60055;41.884;12.534;2023-01-10T12:10:36;13.90;99.90
33414;DHT22;60055;41.884;12.534;2023-01-10T12:13:16;14.00;99.90
33414;DHT22;60055;41.884;12.534;2023-01-10T12:15:42;14.00;99.90
33414;DHT22;60055;41.884;12.534;2023-01-10T12:18:10;14.00;99.90
33414;DHT22;60055;41.884;12.534;2023-01-10T12:20:51;14.00;99.90
33414;DHT22;60055;41.884;12.534;2023-01-10T12:23:20;14.10;99.90
33414;DHT22;60055;41.884;12.534;2023-01-10T12:25:49;14.00;99.90
33414;DHT22;60055;41.884;12.534;2023-01-10T12:28:25;14.00;99.90
33414;DHT22;60055;41.884;12.534;2023-01-10T12:30:55;14.00;99.90
33414;DHT22;60055;41.884;12.534;2023-01-10T12:33:33;14.00;99.90
33414;DHT22;60055;41.884;12.534;2023-01-10T12:42:50;14.20;99.90
33414;DHT22;60055;41.884;12.534;2023-01-10T12:45:58;14.10;99.90
33414;DHT22;60055;41.884;12.534;2023-01-10T12:48:58;14.20;99.90
33414;DHT22;60055;41.884;12.534;2023-01-10T12:51:36;14.30;99.90
33414;DHT22;60055;41.884;12.534;2023-01-10T12:54:22;14.20;99.90
33414;DHT22;60055;41.884;12.534;2023-01-10T12:56:49;14.30;99.90
33414;DHT22;60055;41.884;12.534;2023-01-10T12:59:26;14.20;99.90
33414;DHT22;60055;41.884;12.534;2023-01-10T13:01:57;14.30;99.90
33414;DHT22;60055;41.884;12.534;2023-01-10T13:04:29;14.30;99.90
33414;DHT22;60055;41.884;12.534;2023-01-10T13:06:59;14.40;99.90
33414;DHT22;60055;41.884;12.534;2023-01-10T13:09:30;14.40;99.90
33414;DHT22;60055;41.884;12.534;2023-01-10T13:12:38;14.40;99.90
33414;DHT22;60055;41.884;12.534;2023-01-10T13:15:26;14.30;99.90
33414;DHT22;60055;41.884;12.534;2023-01-10T13:18:12;14.40;99.90
33414;DHT22;60055;41.884;12.534;2023-01-10T13:20:45;14.30;99.90
33414;DHT22;60055;41.884;12.534;2023-01-10T13:23:44;14.20;99.90
33414;DHT22;60055;41.884;12.534;2023-01-10T13:26:14;14.20;99.90
33414;DHT22;60055;41.884;12.534;2023-01-10T13:28:56;14.20;99.90
33414;DHT22;60055;41.884;12.534;2023-01-10T13:31:32;14.10;99.90
33414;DHT22;60055;41.884;12.534;2023-01-10T13:34:04;14.10;99.90
33414;DHT22;60055;41.884;12.534;2023-01-10T13:36:41;14.10;99.90
33414;DHT22;60055;41.884;12.534;2023-01-10T13:39:18;14.20;99.90
33414;DHT22;60055;41.884;12.534;2023-01-10T13:53:39;14.20;99.90
33414;DHT22;60055;41.884;12.534;2023-01-10T13:56:32;14.20;99.90
33414;DHT22;60055;41.884;12.534;2023-01-10T13:58:59;14.10;99.90
33414;DHT22;60055;41.884;12.534;2023-01-10T14:01:50;14.00;99.90
33414;DHT22;60055;41.884;12.534;2023-01-10T14:05:06;14.00;99.90
33414;DHT22;60055;41.884;12.534;2023-01-10T14:07:50;13.90;99.90
33414;DHT22;60055;41.884;12.534;2023-01-10T14:10:30;13.90;99.90
33414;DHT22;60055;41.884;12.534;2023-01-10T14:13:20;13.90;99.90
33414;DHT22;60055;41.884;12.534;2023-01-10T14:15:50;13.90;99.90
33414;DHT22;60055;41.884;12.534;2023-01-10T14:18:23;13.90;99.90
33414;DHT22;60055;41.884;12.534;2023-01-10T14:20:59;13.90;99.90
33414;DHT22;60055;41.884;12.534;2023-01-10T14:23:34;13.90;99.90
33414;DHT22;60055;41.884;12.534;2023-01-10T14:26:01;13.90;99.90
33414;DHT22;60055;41.884;12.534;2023-01-10T14:28:35;13.80;99.90
33414;DHT22;60055;41.884;12.534;2023-01-10T14:31:18;13.80;99.90
33414;DHT22;60055;41.884;12.534;2023-01-10T14:33:52;13.70;99.90
33414;DHT22;60055;41.884;12.534;2023-01-10T14:36:28;13.70;99.90
33414;DHT22;60055;41.884;12.534;2023-01-10T14:39:03;13.70;99.90
33414;DHT22;60055;41.884;12.534;2023-01-10T14:41:33;13.70;99.90
33414;DHT22;60055;41.884;12.534;2023-01-10T14:46:50;13.70;99.90
33414;DHT22;60055;41.884;12.534;2023-01-10T14:49:25;13.60;99.90
33414;DHT22;60055;41.884;12.534;2023-01-10T14:51:54;13.70;99.90
33414;DHT22;60055;41.884;12.534;2023-01-10T14:54:28;13.60;99.90
33414;DHT22;60055;41.884;12.534;2023-01-10T14:57:00;13.60;99.90
33414;DHT22;60055;41.884;12.534;2023-01-10T14:59:43;13.60;99.90
33414;DHT22;60055;41.884;12.534;2023-01-10T15:02:19;13.50;99.90
33414;DHT22;60055;41.884;12.534;2023-01-10T15:04:56;13.60;99.90
33414;DHT22;60055;41.884;12.534;2023-01-10T15:07:27;13.60;99.90
33414;DHT22;60055;41.884;12.534;2023-01-10T15:10:27;13.50;99.90
33414;DHT22;60055;41.884;12.534;2023-01-10T15:12:57;13.60;99.90
33414;DHT22;60055;41.884;12.534;2023-01-10T15:15:52;13.60;99.90
33414;DHT22;60055;41.884;12.534;2023-01-10T15:19:00;13.60;99.90
33414;DHT22;60055;41.884;12.534;2023-01-10T15:24:34;13.40;99.90
33414;DHT22;60055;41.884;12.534;2023-01-10T15:27:05;13.40;99.90
33414;DHT22;60055;41.884;12.534;2023-01-10T15:29:41;13.40;99.90
33414;DHT22;60055;41.884;12.534;2023-01-10T15:32:40;13.40;99.90
33414;DHT22;60055;41.884;12.534;2023-01-10T15:35:10;13.40;99.90
33414;DHT22;60055;41.884;12.534;2023-01-10T15:38:07;13.30;99.90
33414;DHT22;60055;41.884;12.534;2023-01-10T15:40:43;13.30;99.90
33414;DHT22;60055;41.884;12.534;2023-01-10T15:43:37;13.30;99.90
33414;DHT22;60055;41.884;12.534;2023-01-10T15:46:04;13.30;99.90
33414;DHT22;60055;41.884;12.534;2023-01-10T15:49:00;13.20;99.90
33414;DHT22;60055;41.884;12.534;2023-01-10T15:51:34;13.20;99.90
33414;DHT22;60055;41.884;12.534;2023-01-10T15:54:42;13.10;99.90
33414;DHT22;60055;41.884;12.534;2023-01-10T15:57:33;13.10;99.90
33414;DHT22;60055;41.884;12.534;2023-01-10T16:00:33;13.00;99.90
33414;DHT22;60055;41.884;12.534;2023-01-10T16:06:44;13.00;99.90
33414;DHT22;60055;41.884;12.534;2023-01-10T16:09:19;13.00;99.90
33414;DHT22;60055;41.884;12.534;2023-01-10T16:11:54;13.00;99.90
33414;DHT22;60055;41.884;12.534;2023-01-10T16:17:30;12.90;99.90
33414;DHT22;60055;41.884;12.534;2023-01-10T16:20:06;12.90;99.90
33414;DHT22;60055;41.884;12.534;2023-01-10T16:22:41;12.80;99.90
33414;DHT22;60055;41.884;12.534;2023-01-10T16:25:16;12.80;99.90
33414;DHT22;60055;41.884;12.534;2023-01-10T16:27:43;12.80;99.90
33414;DHT22;60055;41.884;12.534;2023-01-10T16:32:51;12.80;99.90
33414;DHT22;60055;41.884;12.534;2023-01-10T16:35:26;12.80;99.90
33414;DHT22;60055;41.884;12.534;2023-01-10T16:37:58;12.70;99.90
33414;DHT22;60055;41.884;12.534;2023-01-10T16:43:21;12.60;99.90
33414;DHT22;60055;41.884;12.534;2023-01-10T16:46:04;12.60;99.90
33414;DHT22;60055;41.884;12.534;2023-01-10T16:48:54;12.60;99.90
33414;DHT22;60055;41.884;12.534;2023-01-10T16:51:40;12.50;99.90
33414;DHT22;60055;41.884;12.534;2023-01-10T16:54:16;12.60;99.90
33414;DHT22;60055;41.884;12.534;2023-01-10T16:56:46;12.40;99.90
33414;DHT22;60055;41.884;12.534;2023-01-10T16:59:14;12.40;99.90
33414;DHT22;60055;41.884;12.534;2023-01-10T17:01:47;12.40;99.90
33414;DHT22;60055;41.884;12.534;2023-01-10T17:04:21;12.30;99.90
33414;DHT22;60055;41.884;12.534;2023-01-10T17:06:47;12.30;99.90
33414;DHT22;60055;41.884;12.534;2023-01-10T17:09:22;12.30;99.90
33414;DHT22;60055;41.884;12.534;2023-01-10T17:11:53;12.30;99.90
33414;DHT22;60055;41.884;12.534;2023-01-10T17:14:27;12.30;99.90
33414;DHT22;60055;41.884;12.534;2023-01-10T17:16:58;12.30;99.90
33414;DHT22;60055;41.884;12.534;2023-01-10T17:19:29;12.30;99.90
33414;DHT22;60055;41.884;12.534;2023-01-10T17:21:54;12.30;99.90
33414;DHT22;60055;41.884;12.534;2023-01-10T17:24:20;12.10;99.90
33414;DHT22;60055;41.884;12.534;2023-01-10T17:26:52;12.10;99.90
33414;DHT22;60055;41.884;12.534;2023-01-10T17:29:18;12.20;99.90
33414;DHT22;60055;41.884;12.534;2023-01-10T17:31:49;12.10;99.90
33414;DHT22;60055;41.884;12.534;2023-01-10T17:34:15;12.10;99.90
33414;DHT22;60055;41.884;12.534;2023-01-10T17:36:48;12.10;99.90